sensor_id;sensor_type;location;lat;lon;timestamp;P1;durP1;ratioP1;P2;durP2;ratioP2
50681;SDS011;36779;52.168;20.878;2022-07-29T00:02:55;5.70;;;3.10;;
50681;SDS011;36779;52.168;20.878;2022-07-29T00:05:45;7.40;;;4.00;;
50681;SDS011;36779;52.168;20.878;2022-07-29T00:08:34;4.80;;;3.30;;
50681;SDS011;36779;52.168;20.878;2022-07-29T00:11:23;5.30;;;3.40;;
50681;SDS011;36779;52.168;20.878;2022-07-29T00:13:57;6.60;;;3.10;;
50681;SDS011;36779;52.168;20.878;2022-07-29T00:16:47;6.20;;;2.90;;
50681;SDS011;36779;52.168;20.878;2022-07-29T00:19:38;9.30;;;3.50;;
50681;SDS011;36779;52.168;20.878;2022-07-29T00:22:37;5.20;;;3.60;;
50681;SDS011;36779;52.168;20.878;2022-07-29T00:25:27;4.50;;;3.30;;
50681;SDS011;36779;52.168;20.878;2022-07-29T00:28:17;5.10;;;3.10;;
50681;SDS011;36779;52.168;20.878;2022-07-29T00:31:07;5.60;;;3.60;;
50681;SDS011;36779;52.168;20.878;2022-07-29T00:33:56;5.60;;;3.50;;
50681;SDS011;36779;52.168;20.878;2022-07-29T00:36:45;5.20;;;3.50;;
50681;SDS011;36779;52.168;20.878;2022-07-29T00:39:40;5.80;;;3.70;;
50681;SDS011;36779;52.168;20.878;2022-07-29T00:42:30;6.90;;;3.50;;
50681;SDS011;36779;52.168;20.878;2022-07-29T00:45:29;5.00;;;2.80;;
50681;SDS011;36779;52.168;20.878;2022-07-29T00:48:19;5.10;;;2.50;;
50681;SDS011;36779;52.168;20.878;2022-07-29T00:51:08;6.10;;;3.80;;
50681;SDS011;36779;52.168;20.878;2022-07-29T00:53:58;6.20;;;3.80;;
50681;SDS011;36779;52.168;20.878;2022-07-29T00:56:47;6.20;;;3.30;;
50681;SDS011;36779;52.168;20.878;2022-07-29T00:59:46;6.30;;;3.00;;
50681;SDS011;36779;52.168;20.878;2022-07-29T01:02:36;6.40;;;3.80;;
50681;SDS011;36779;52.168;20.878;2022-07-29T01:05:26;4.80;;;3.00;;
50681;SDS011;36779;52.168;20.878;2022-07-29T01:08:54;5.40;;;2.40;;
50681;SDS011;36779;52.168;20.878;2022-07-29T01:11:44;5.70;;;3.20;;
50681;SDS011;36779;52.168;20.878;2022-07-29T01:14:36;7.30;;;2.90;;
50681;SDS011;36779;52.168;20.878;2022-07-29T01:17:32;4.30;;;3.50;;
50681;SDS011;36779;52.168;20.878;2022-07-29T01:20:31;7.00;;;3.60;;
50681;SDS011;36779;52.168;20.878;2022-07-29T01:23:45;6.00;;;3.00;;
50681;SDS011;36779;52.168;20.878;2022-07-29T01:26:46;8.50;;;2.80;;
50681;SDS011;36779;52.168;20.878;2022-07-29T01:29:41;5.30;;;2.80;;
50681;SDS011;36779;52.168;20.878;2022-07-29T01:32:37;10.00;;;2.90;;
50681;SDS011;36779;52.168;20.878;2022-07-29T01:35:30;3.30;;;2.30;;
50681;SDS011;36779;52.168;20.878;2022-07-29T01:38:24;7.00;;;3.00;;
50681;SDS011;36779;52.168;20.878;2022-07-29T01:41:07;4.40;;;2.40;;
50681;SDS011;36779;52.168;20.878;2022-07-29T01:44:01;4.30;;;2.30;;
50681;SDS011;36779;52.168;20.878;2022-07-29T01:46:58;5.60;;;2.60;;
50681;SDS011;36779;52.168;20.878;2022-07-29T01:49:50;5.70;;;2.60;;
50681;SDS011;36779;52.168;20.878;2022-07-29T01:52:43;5.70;;;2.30;;
50681;SDS011;36779;52.168;20.878;2022-07-29T01:55:38;4.20;;;2.40;;
50681;SDS011;36779;52.168;20.878;2022-07-29T01:58:32;6.60;;;2.40;;
50681;SDS011;36779;52.168;20.878;2022-07-29T02:01:23;5.50;;;2.30;;
50681;SDS011;36779;52.168;20.878;2022-07-29T02:04:06;3.20;;;1.90;;
50681;SDS011;36779;52.168;20.878;2022-07-29T02:06:58;4.20;;;2.00;;
50681;SDS011;36779;52.168;20.878;2022-07-29T02:09:49;3.90;;;2.00;;
50681;SDS011;36779;52.168;20.878;2022-07-29T02:12:40;4.50;;;2.00;;
50681;SDS011;36779;52.168;20.878;2022-07-29T02:15:38;5.90;;;2.30;;
50681;SDS011;36779;52.168;20.878;2022-07-29T02:18:23;4.90;;;2.00;;
50681;SDS011;36779;52.168;20.878;2022-07-29T02:21:16;4.60;;;1.70;;
50681;SDS011;36779;52.168;20.878;2022-07-29T02:24:11;4.60;;;1.60;;
50681;SDS011;36779;52.168;20.878;2022-07-29T02:30:08;4.90;;;2.30;;
50681;SDS011;36779;52.168;20.878;2022-07-29T02:33:01;3.00;;;1.90;;
50681;SDS011;36779;52.168;20.878;2022-07-29T02:35:53;5.50;;;2.00;;
50681;SDS011;36779;52.168;20.878;2022-07-29T02:38:38;3.60;;;1.60;;
50681;SDS011;36779;52.168;20.878;2022-07-29T02:41:33;5.80;;;1.70;;
50681;SDS011;36779;52.168;20.878;2022-07-29T02:44:27;2.80;;;1.70;;
50681;SDS011;36779;52.168;20.878;2022-07-29T02:47:22;4.60;;;1.60;;
50681;SDS011;36779;52.168;20.878;2022-07-29T02:50:07;5.60;;;1.80;;
50681;SDS011;36779;52.168;20.878;2022-07-29T02:53:00;3.20;;;1.60;;
50681;SDS011;36779;52.168;20.878;2022-07-29T02:55:56;3.00;;;1.40;;
50681;SDS011;36779;52.168;20.878;2022-07-29T02:58:52;5.30;;;1.90;;
50681;SDS011;36779;52.168;20.878;2022-07-29T03:01:35;3.30;;;1.50;;
50681;SDS011;36779;52.168;20.878;2022-07-29T03:04:13;3.70;;;1.70;;
50681;SDS011;36779;52.168;20.878;2022-07-29T03:06:55;3.80;;;1.60;;
50681;SDS011;36779;52.168;20.878;2022-07-29T03:09:49;4.80;;;1.40;;
50681;SDS011;36779;52.168;20.878;2022-07-29T03:12:39;4.40;;;1.50;;
50681;SDS011;36779;52.168;20.878;2022-07-29T03:15:30;3.20;;;1.50;;
50681;SDS011;36779;52.168;20.878;2022-07-29T03:18:20;5.50;;;1.60;;
50681;SDS011;36779;52.168;20.878;2022-07-29T03:21:09;3.10;;;1.90;;
50681;SDS011;36779;52.168;20.878;2022-07-29T03:24:00;3.80;;;1.40;;
50681;SDS011;36779;52.168;20.878;2022-07-29T03:26:56;2.70;;;1.20;;
50681;SDS011;36779;52.168;20.878;2022-07-29T03:29:36;2.70;;;1.50;;
50681;SDS011;36779;52.168;20.878;2022-07-29T03:32:36;3.90;;;1.30;;
50681;SDS011;36779;52.168;20.878;2022-07-29T03:35:27;4.10;;;1.50;;
50681;SDS011;36779;52.168;20.878;2022-07-29T03:38:09;5.50;;;1.50;;
50681;SDS011;36779;52.168;20.878;2022-07-29T03:41:00;5.40;;;1.60;;
50681;SDS011;36779;52.168;20.878;2022-07-29T03:43:51;2.10;;;1.20;;
50681;SDS011;36779;52.168;20.878;2022-07-29T03:46:41;2.60;;;1.50;;
50681;SDS011;36779;52.168;20.878;2022-07-29T03:49:32;3.10;;;1.30;;
50681;SDS011;36779;52.168;20.878;2022-07-29T03:52:24;4.00;;;1.80;;
50681;SDS011;36779;52.168;20.878;2022-07-29T03:55:17;2.80;;;1.80;;
50681;SDS011;36779;52.168;20.878;2022-07-29T03:58:08;3.80;;;1.50;;
50681;SDS011;36779;52.168;20.878;2022-07-29T04:00:58;3.20;;;1.60;;
50681;SDS011;36779;52.168;20.878;2022-07-29T04:03:48;3.00;;;1.40;;
50681;SDS011;36779;52.168;20.878;2022-07-29T04:06:39;3.20;;;1.30;;
50681;SDS011;36779;52.168;20.878;2022-07-29T04:10:14;3.10;;;1.50;;
50681;SDS011;36779;52.168;20.878;2022-07-29T04:13:15;3.10;;;1.50;;
50681;SDS011;36779;52.168;20.878;2022-07-29T04:16:06;4.40;;;1.50;;
50681;SDS011;36779;52.168;20.878;2022-07-29T04:18:56;4.70;;;1.50;;
50681;SDS011;36779;52.168;20.878;2022-07-29T04:21:46;2.50;;;1.30;;
50681;SDS011;36779;52.168;20.878;2022-07-29T04:24:35;3.40;;;1.50;;
50681;SDS011;36779;52.168;20.878;2022-07-29T04:27:24;4.00;;;1.90;;
50681;SDS011;36779;52.168;20.878;2022-07-29T04:30:14;3.80;;;1.30;;
50681;SDS011;36779;52.168;20.878;2022-07-29T04:33:04;3.80;;;1.50;;
50681;SDS011;36779;52.168;20.878;2022-07-29T04:35:48;4.90;;;1.70;;
50681;SDS011;36779;52.168;20.878;2022-07-29T04:38:42;5.40;;;1.50;;
50681;SDS011;36779;52.168;20.878;2022-07-29T04:41:31;5.30;;;1.40;;
50681;SDS011;36779;52.168;20.878;2022-07-29T04:44:21;2.70;;;1.60;;
50681;SDS011;36779;52.168;20.878;2022-07-29T04:47:16;5.80;;;1.60;;
50681;SDS011;36779;52.168;20.878;2022-07-29T04:50:07;5.30;;;1.30;;
50681;SDS011;36779;52.168;20.878;2022-07-29T04:52:59;4.90;;;1.30;;
50681;SDS011;36779;52.168;20.878;2022-07-29T04:55:51;4.00;;;1.10;;
50681;SDS011;36779;52.168;20.878;2022-07-29T04:58:41;2.80;;;1.40;;
50681;SDS011;36779;52.168;20.878;2022-07-29T05:01:30;3.90;;;1.00;;
50681;SDS011;36779;52.168;20.878;2022-07-29T05:04:19;3.30;;;1.10;;
50681;SDS011;36779;52.168;20.878;2022-07-29T05:07:08;1.60;;;1.10;;
50681;SDS011;36779;52.168;20.878;2022-07-29T05:09:58;2.40;;;1.10;;
50681;SDS011;36779;52.168;20.878;2022-07-29T05:12:47;3.40;;;1.30;;
50681;SDS011;36779;52.168;20.878;2022-07-29T05:15:38;2.40;;;1.00;;
50681;SDS011;36779;52.168;20.878;2022-07-29T05:18:28;3.00;;;1.20;;
50681;SDS011;36779;52.168;20.878;2022-07-29T05:21:17;3.60;;;1.20;;
50681;SDS011;36779;52.168;20.878;2022-07-29T05:24:07;4.70;;;1.30;;
50681;SDS011;36779;52.168;20.878;2022-07-29T05:26:56;4.50;;;1.50;;
50681;SDS011;36779;52.168;20.878;2022-07-29T05:29:46;2.20;;;1.10;;
50681;SDS011;36779;52.168;20.878;2022-07-29T05:32:24;3.00;;;1.20;;
50681;SDS011;36779;52.168;20.878;2022-07-29T05:35:14;2.60;;;1.00;;
50681;SDS011;36779;52.168;20.878;2022-07-29T05:38:03;3.50;;;1.00;;
50681;SDS011;36779;52.168;20.878;2022-07-29T05:40:56;3.90;;;1.10;;
50681;SDS011;36779;52.168;20.878;2022-07-29T05:47:05;3.70;;;1.00;;
50681;SDS011;36779;52.168;20.878;2022-07-29T05:49:55;5.00;;;1.20;;
50681;SDS011;36779;52.168;20.878;2022-07-29T05:52:44;3.30;;;1.30;;
50681;SDS011;36779;52.168;20.878;2022-07-29T05:55:33;4.00;;;1.10;;
50681;SDS011;36779;52.168;20.878;2022-07-29T05:58:25;1.70;;;0.90;;
50681;SDS011;36779;52.168;20.878;2022-07-29T06:01:15;3.60;;;1.10;;
50681;SDS011;36779;52.168;20.878;2022-07-29T06:04:05;2.50;;;1.00;;
50681;SDS011;36779;52.168;20.878;2022-07-29T06:06:54;4.00;;;1.40;;
50681;SDS011;36779;52.168;20.878;2022-07-29T06:09:44;1.90;;;0.80;;
50681;SDS011;36779;52.168;20.878;2022-07-29T06:12:24;3.80;;;0.90;;
50681;SDS011;36779;52.168;20.878;2022-07-29T06:15:14;2.30;;;1.10;;
50681;SDS011;36779;52.168;20.878;2022-07-29T06:18:03;3.90;;;1.00;;
50681;SDS011;36779;52.168;20.878;2022-07-29T06:20:56;2.30;;;0.90;;
50681;SDS011;36779;52.168;20.878;2022-07-29T06:30:58;6.10;;;0.90;;
50681;SDS011;36779;52.168;20.878;2022-07-29T06:33:49;4.90;;;1.00;;
50681;SDS011;36779;52.168;20.878;2022-07-29T06:36:34;1.80;;;0.70;;
50681;SDS011;36779;52.168;20.878;2022-07-29T06:39:41;3.40;;;0.80;;
50681;SDS011;36779;52.168;20.878;2022-07-29T06:42:30;3.40;;;0.70;;
50681;SDS011;36779;52.168;20.878;2022-07-29T06:45:19;3.60;;;0.90;;
50681;SDS011;36779;52.168;20.878;2022-07-29T06:48:08;4.50;;;1.20;;
50681;SDS011;36779;52.168;20.878;2022-07-29T06:50:58;3.90;;;0.90;;
50681;SDS011;36779;52.168;20.878;2022-07-29T06:53:48;2.90;;;0.80;;
50681;SDS011;36779;52.168;20.878;2022-07-29T06:56:51;4.20;;;1.00;;
50681;SDS011;36779;52.168;20.878;2022-07-29T06:59:39;3.50;;;0.90;;
50681;SDS011;36779;52.168;20.878;2022-07-29T07:02:29;2.90;;;0.90;;
50681;SDS011;36779;52.168;20.878;2022-07-29T07:05:08;2.50;;;0.80;;
50681;SDS011;36779;52.168;20.878;2022-07-29T07:15:04;4.10;;;1.10;;
50681;SDS011;36779;52.168;20.878;2022-07-29T07:17:54;3.60;;;1.00;;
50681;SDS011;36779;52.168;20.878;2022-07-29T07:20:44;3.10;;;1.00;;
50681;SDS011;36779;52.168;20.878;2022-07-29T07:23:33;3.30;;;0.90;;
50681;SDS011;36779;52.168;20.878;2022-07-29T07:26:22;2.60;;;1.00;;
50681;SDS011;36779;52.168;20.878;2022-07-29T07:29:12;2.60;;;0.80;;
50681;SDS011;36779;52.168;20.878;2022-07-29T07:32:01;1.90;;;0.80;;
50681;SDS011;36779;52.168;20.878;2022-07-29T07:34:51;1.50;;;0.90;;
50681;SDS011;36779;52.168;20.878;2022-07-29T07:37:40;1.30;;;0.80;;
50681;SDS011;36779;52.168;20.878;2022-07-29T07:40:30;2.90;;;0.90;;
50681;SDS011;36779;52.168;20.878;2022-07-29T07:43:19;5.40;;;1.20;;
50681;SDS011;36779;52.168;20.878;2022-07-29T07:46:09;2.60;;;0.80;;
50681;SDS011;36779;52.168;20.878;2022-07-29T07:48:58;3.40;;;1.00;;
50681;SDS011;36779;52.168;20.878;2022-07-29T07:51:50;4.00;;;1.00;;
50681;SDS011;36779;52.168;20.878;2022-07-29T07:57:56;3.00;;;1.00;;
50681;SDS011;36779;52.168;20.878;2022-07-29T08:00:47;15.90;;;2.10;;
50681;SDS011;36779;52.168;20.878;2022-07-29T08:03:38;3.60;;;1.00;;
50681;SDS011;36779;52.168;20.878;2022-07-29T08:06:28;3.90;;;0.90;;
50681;SDS011;36779;52.168;20.878;2022-07-29T08:09:17;3.60;;;0.90;;
50681;SDS011;36779;52.168;20.878;2022-07-29T08:12:17;3.50;;;0.90;;
50681;SDS011;36779;52.168;20.878;2022-07-29T08:15:11;5.80;;;1.20;;
50681;SDS011;36779;52.168;20.878;2022-07-29T08:17:52;3.00;;;0.90;;
50681;SDS011;36779;52.168;20.878;2022-07-29T08:20:41;4.00;;;1.00;;
50681;SDS011;36779;52.168;20.878;2022-07-29T08:23:31;3.40;;;1.00;;
50681;SDS011;36779;52.168;20.878;2022-07-29T08:26:37;4.20;;;1.00;;
50681;SDS011;36779;52.168;20.878;2022-07-29T08:29:26;3.00;;;0.80;;
50681;SDS011;36779;52.168;20.878;2022-07-29T08:32:16;4.30;;;0.90;;
50681;SDS011;36779;52.168;20.878;2022-07-29T08:35:25;3.90;;;1.00;;
50681;SDS011;36779;52.168;20.878;2022-07-29T08:38:22;2.40;;;0.80;;
50681;SDS011;36779;52.168;20.878;2022-07-29T08:41:11;3.20;;;0.80;;
50681;SDS011;36779;52.168;20.878;2022-07-29T08:44:01;2.60;;;1.00;;
50681;SDS011;36779;52.168;20.878;2022-07-29T08:46:51;3.20;;;1.00;;
50681;SDS011;36779;52.168;20.878;2022-07-29T08:49:41;3.50;;;1.00;;
50681;SDS011;36779;52.168;20.878;2022-07-29T08:52:35;3.30;;;1.00;;
50681;SDS011;36779;52.168;20.878;2022-07-29T08:55:29;1.60;;;0.90;;
50681;SDS011;36779;52.168;20.878;2022-07-29T08:58:19;7.10;;;1.30;;
50681;SDS011;36779;52.168;20.878;2022-07-29T09:01:11;4.50;;;0.90;;
50681;SDS011;36779;52.168;20.878;2022-07-29T09:04:09;2.10;;;0.90;;
50681;SDS011;36779;52.168;20.878;2022-07-29T09:07:00;4.10;;;0.90;;
50681;SDS011;36779;52.168;20.878;2022-07-29T09:09:54;2.90;;;0.90;;
50681;SDS011;36779;52.168;20.878;2022-07-29T09:12:45;3.80;;;0.90;;
50681;SDS011;36779;52.168;20.878;2022-07-29T09:15:38;5.50;;;1.00;;
50681;SDS011;36779;52.168;20.878;2022-07-29T09:18:35;2.90;;;0.80;;
50681;SDS011;36779;52.168;20.878;2022-07-29T09:21:25;3.90;;;0.90;;
50681;SDS011;36779;52.168;20.878;2022-07-29T09:24:47;3.80;;;0.80;;
50681;SDS011;36779;52.168;20.878;2022-07-29T09:27:31;1.60;;;0.70;;
50681;SDS011;36779;52.168;20.878;2022-07-29T09:30:21;2.50;;;0.80;;
50681;SDS011;36779;52.168;20.878;2022-07-29T09:33:18;2.90;;;0.80;;
50681;SDS011;36779;52.168;20.878;2022-07-29T09:36:09;4.20;;;0.90;;
50681;SDS011;36779;52.168;20.878;2022-07-29T09:39:00;4.60;;;0.80;;
50681;SDS011;36779;52.168;20.878;2022-07-29T09:41:52;3.60;;;0.80;;
50681;SDS011;36779;52.168;20.878;2022-07-29T09:44:46;2.80;;;1.00;;
50681;SDS011;36779;52.168;20.878;2022-07-29T09:47:44;2.10;;;0.70;;
50681;SDS011;36779;52.168;20.878;2022-07-29T09:50:38;4.00;;;0.90;;
50681;SDS011;36779;52.168;20.878;2022-07-29T09:53:32;2.00;;;0.70;;
50681;SDS011;36779;52.168;20.878;2022-07-29T09:56:24;2.40;;;1.00;;
50681;SDS011;36779;52.168;20.878;2022-07-29T09:59:17;2.30;;;1.30;;
50681;SDS011;36779;52.168;20.878;2022-07-29T10:02:12;5.50;;;1.40;;
50681;SDS011;36779;52.168;20.878;2022-07-29T10:05:17;2.40;;;1.40;;
50681;SDS011;36779;52.168;20.878;2022-07-29T10:08:08;3.90;;;1.00;;
50681;SDS011;36779;52.168;20.878;2022-07-29T10:11:08;3.00;;;0.80;;
50681;SDS011;36779;52.168;20.878;2022-07-29T10:13:52;2.80;;;1.10;;
50681;SDS011;36779;52.168;20.878;2022-07-29T10:16:41;3.90;;;1.00;;
50681;SDS011;36779;52.168;20.878;2022-07-29T10:19:31;1.70;;;0.80;;
50681;SDS011;36779;52.168;20.878;2022-07-29T10:22:23;2.10;;;0.70;;
50681;SDS011;36779;52.168;20.878;2022-07-29T10:25:33;2.30;;;0.70;;
50681;SDS011;36779;52.168;20.878;2022-07-29T10:28:23;3.20;;;0.70;;
50681;SDS011;36779;52.168;20.878;2022-07-29T10:31:04;2.10;;;0.80;;
50681;SDS011;36779;52.168;20.878;2022-07-29T10:33:57;2.20;;;1.00;;
50681;SDS011;36779;52.168;20.878;2022-07-29T10:36:56;2.10;;;0.80;;
50681;SDS011;36779;52.168;20.878;2022-07-29T10:39:59;1.40;;;0.60;;
50681;SDS011;36779;52.168;20.878;2022-07-29T10:43:16;2.60;;;0.70;;
50681;SDS011;36779;52.168;20.878;2022-07-29T10:46:09;3.30;;;0.70;;
50681;SDS011;36779;52.168;20.878;2022-07-29T10:49:07;1.20;;;0.60;;
50681;SDS011;36779;52.168;20.878;2022-07-29T10:51:59;2.70;;;0.70;;
50681;SDS011;36779;52.168;20.878;2022-07-29T10:54:53;3.30;;;0.80;;
50681;SDS011;36779;52.168;20.878;2022-07-29T10:57:54;1.60;;;0.80;;
50681;SDS011;36779;52.168;20.878;2022-07-29T11:01:00;1.80;;;0.80;;
50681;SDS011;36779;52.168;20.878;2022-07-29T11:18:07;1.50;;;0.90;;
50681;SDS011;36779;52.168;20.878;2022-07-29T11:21:04;1.90;;;0.70;;
50681;SDS011;36779;52.168;20.878;2022-07-29T11:24:43;2.30;;;0.70;;
50681;SDS011;36779;52.168;20.878;2022-07-29T11:27:37;2.30;;;0.70;;
50681;SDS011;36779;52.168;20.878;2022-07-29T11:33:40;2.90;;;0.70;;
50681;SDS011;36779;52.168;20.878;2022-07-29T11:40:10;1.40;;;0.70;;
50681;SDS011;36779;52.168;20.878;2022-07-29T11:42:46;1.60;;;0.70;;
50681;SDS011;36779;52.168;20.878;2022-07-29T11:45:45;3.60;;;0.90;;
50681;SDS011;36779;52.168;20.878;2022-07-29T11:48:29;1.80;;;0.50;;
50681;SDS011;36779;52.168;20.878;2022-07-29T11:51:22;1.60;;;0.60;;
50681;SDS011;36779;52.168;20.878;2022-07-29T11:54:31;1.90;;;0.60;;
50681;SDS011;36779;52.168;20.878;2022-07-29T11:57:51;2.30;;;0.70;;
50681;SDS011;36779;52.168;20.878;2022-07-29T12:00:51;4.50;;;0.70;;
50681;SDS011;36779;52.168;20.878;2022-07-29T12:03:43;3.90;;;0.80;;
50681;SDS011;36779;52.168;20.878;2022-07-29T12:06:32;1.90;;;0.60;;
50681;SDS011;36779;52.168;20.878;2022-07-29T12:09:15;3.00;;;0.60;;
50681;SDS011;36779;52.168;20.878;2022-07-29T12:12:07;3.90;;;0.60;;
50681;SDS011;36779;52.168;20.878;2022-07-29T12:14:58;3.40;;;0.70;;
50681;SDS011;36779;52.168;20.878;2022-07-29T12:17:59;2.00;;;0.60;;
50681;SDS011;36779;52.168;20.878;2022-07-29T12:20:51;1.20;;;0.50;;
50681;SDS011;36779;52.168;20.878;2022-07-29T12:23:53;0.70;;;0.50;;
50681;SDS011;36779;52.168;20.878;2022-07-29T12:26:52;1.20;;;0.60;;
50681;SDS011;36779;52.168;20.878;2022-07-29T12:29:43;1.70;;;0.50;;
50681;SDS011;36779;52.168;20.878;2022-07-29T12:32:37;1.70;;;0.70;;
50681;SDS011;36779;52.168;20.878;2022-07-29T12:35:27;0.80;;;0.60;;
50681;SDS011;36779;52.168;20.878;2022-07-29T12:38:17;2.90;;;0.70;;
50681;SDS011;36779;52.168;20.878;2022-07-29T12:40:52;2.00;;;0.70;;
50681;SDS011;36779;52.168;20.878;2022-07-29T12:43:51;1.00;;;0.70;;
50681;SDS011;36779;52.168;20.878;2022-07-29T12:46:41;2.70;;;0.60;;
50681;SDS011;36779;52.168;20.878;2022-07-29T12:49:29;1.80;;;0.60;;
50681;SDS011;36779;52.168;20.878;2022-07-29T12:52:25;1.80;;;0.60;;
50681;SDS011;36779;52.168;20.878;2022-07-29T12:55:37;1.70;;;0.70;;
50681;SDS011;36779;52.168;20.878;2022-07-29T12:58:38;2.60;;;0.70;;
50681;SDS011;36779;52.168;20.878;2022-07-29T13:01:18;0.90;;;0.60;;
50681;SDS011;36779;52.168;20.878;2022-07-29T13:04:08;0.90;;;0.50;;
50681;SDS011;36779;52.168;20.878;2022-07-29T13:07:01;1.90;;;0.60;;
50681;SDS011;36779;52.168;20.878;2022-07-29T13:09:52;3.70;;;0.70;;
50681;SDS011;36779;52.168;20.878;2022-07-29T13:16:05;0.80;;;0.60;;
50681;SDS011;36779;52.168;20.878;2022-07-29T13:19:05;1.70;;;0.60;;
50681;SDS011;36779;52.168;20.878;2022-07-29T13:21:55;1.80;;;0.60;;
50681;SDS011;36779;52.168;20.878;2022-07-29T13:24:46;1.70;;;0.60;;
50681;SDS011;36779;52.168;20.878;2022-07-29T13:27:37;2.20;;;0.50;;
50681;SDS011;36779;52.168;20.878;2022-07-29T13:30:28;1.20;;;0.50;;
50681;SDS011;36779;52.168;20.878;2022-07-29T13:33:07;1.40;;;0.60;;
50681;SDS011;36779;52.168;20.878;2022-07-29T13:35:56;5.40;;;0.70;;
50681;SDS011;36779;52.168;20.878;2022-07-29T13:38:45;2.50;;;0.70;;
50681;SDS011;36779;52.168;20.878;2022-07-29T13:41:35;2.20;;;0.70;;
50681;SDS011;36779;52.168;20.878;2022-07-29T13:44:24;2.60;;;0.60;;
50681;SDS011;36779;52.168;20.878;2022-07-29T13:47:22;1.80;;;0.60;;
50681;SDS011;36779;52.168;20.878;2022-07-29T13:50:20;2.10;;;0.60;;
50681;SDS011;36779;52.168;20.878;2022-07-29T13:53:10;2.50;;;0.70;;
50681;SDS011;36779;52.168;20.878;2022-07-29T13:56:05;2.50;;;0.60;;
50681;SDS011;36779;52.168;20.878;2022-07-29T13:58:44;1.30;;;0.40;;
50681;SDS011;36779;52.168;20.878;2022-07-29T14:01:24;5.20;;;0.70;;
50681;SDS011;36779;52.168;20.878;2022-07-29T14:04:16;2.00;;;0.60;;
50681;SDS011;36779;52.168;20.878;2022-07-29T14:07:04;4.40;;;0.60;;
50681;SDS011;36779;52.168;20.878;2022-07-29T14:09:54;1.70;;;0.70;;
50681;SDS011;36779;52.168;20.878;2022-07-29T14:12:44;2.20;;;0.60;;
50681;SDS011;36779;52.168;20.878;2022-07-29T14:15:33;2.70;;;0.70;;
50681;SDS011;36779;52.168;20.878;2022-07-29T14:18:26;4.70;;;0.80;;
50681;SDS011;36779;52.168;20.878;2022-07-29T14:21:08;1.10;;;0.60;;
50681;SDS011;36779;52.168;20.878;2022-07-29T14:23:57;1.40;;;0.80;;
50681;SDS011;36779;52.168;20.878;2022-07-29T14:26:47;1.80;;;0.60;;
50681;SDS011;36779;52.168;20.878;2022-07-29T14:29:39;1.50;;;0.60;;
50681;SDS011;36779;52.168;20.878;2022-07-29T14:32:29;3.70;;;0.60;;
50681;SDS011;36779;52.168;20.878;2022-07-29T14:35:18;1.60;;;0.70;;
50681;SDS011;36779;52.168;20.878;2022-07-29T14:38:09;0.70;;;0.70;;
50681;SDS011;36779;52.168;20.878;2022-07-29T14:41:02;2.00;;;0.70;;
50681;SDS011;36779;52.168;20.878;2022-07-29T14:43:52;1.00;;;0.70;;
50681;SDS011;36779;52.168;20.878;2022-07-29T14:46:41;1.00;;;0.50;;
50681;SDS011;36779;52.168;20.878;2022-07-29T14:49:26;2.50;;;0.70;;
50681;SDS011;36779;52.168;20.878;2022-07-29T14:52:16;1.80;;;0.80;;
50681;SDS011;36779;52.168;20.878;2022-07-29T14:55:07;1.40;;;0.60;;
50681;SDS011;36779;52.168;20.878;2022-07-29T14:58:07;2.00;;;0.70;;
50681;SDS011;36779;52.168;20.878;2022-07-29T15:01:03;1.10;;;0.60;;
50681;SDS011;36779;52.168;20.878;2022-07-29T15:03:53;0.90;;;0.60;;
50681;SDS011;36779;52.168;20.878;2022-07-29T15:06:47;3.10;;;0.70;;
50681;SDS011;36779;52.168;20.878;2022-07-29T15:09:36;1.30;;;0.80;;
50681;SDS011;36779;52.168;20.878;2022-07-29T15:12:37;2.10;;;0.70;;
50681;SDS011;36779;52.168;20.878;2022-07-29T15:19:04;2.80;;;0.60;;
50681;SDS011;36779;52.168;20.878;2022-07-29T15:21:54;2.50;;;0.80;;
50681;SDS011;36779;52.168;20.878;2022-07-29T15:24:47;0.60;;;0.60;;
50681;SDS011;36779;52.168;20.878;2022-07-29T15:27:30;1.80;;;0.60;;
50681;SDS011;36779;52.168;20.878;2022-07-29T15:30:21;1.90;;;0.60;;
50681;SDS011;36779;52.168;20.878;2022-07-29T15:33:10;1.80;;;0.50;;
50681;SDS011;36779;52.168;20.878;2022-07-29T15:35:59;3.90;;;0.80;;
50681;SDS011;36779;52.168;20.878;2022-07-29T15:38:51;2.10;;;0.80;;
50681;SDS011;36779;52.168;20.878;2022-07-29T15:41:41;2.90;;;0.70;;
50681;SDS011;36779;52.168;20.878;2022-07-29T15:44:30;3.30;;;0.80;;
50681;SDS011;36779;52.168;20.878;2022-07-29T15:47:19;4.30;;;0.70;;
50681;SDS011;36779;52.168;20.878;2022-07-29T15:50:08;1.10;;;0.70;;
50681;SDS011;36779;52.168;20.878;2022-07-29T15:52:55;2.20;;;0.80;;
50681;SDS011;36779;52.168;20.878;2022-07-29T15:55:44;2.60;;;0.70;;
50681;SDS011;36779;52.168;20.878;2022-07-29T15:58:33;2.60;;;0.60;;
50681;SDS011;36779;52.168;20.878;2022-07-29T16:01:22;1.60;;;0.80;;
50681;SDS011;36779;52.168;20.878;2022-07-29T16:04:11;3.10;;;0.70;;
50681;SDS011;36779;52.168;20.878;2022-07-29T16:07:01;2.50;;;0.60;;
50681;SDS011;36779;52.168;20.878;2022-07-29T16:09:50;1.40;;;0.60;;
50681;SDS011;36779;52.168;20.878;2022-07-29T16:12:40;1.60;;;0.70;;
50681;SDS011;36779;52.168;20.878;2022-07-29T16:15:29;1.90;;;0.60;;
50681;SDS011;36779;52.168;20.878;2022-07-29T16:18:18;1.80;;;0.80;;
50681;SDS011;36779;52.168;20.878;2022-07-29T16:21:17;2.50;;;0.70;;
50681;SDS011;36779;52.168;20.878;2022-07-29T16:24:06;1.70;;;0.50;;
50681;SDS011;36779;52.168;20.878;2022-07-29T16:26:57;5.70;;;1.00;;
50681;SDS011;36779;52.168;20.878;2022-07-29T16:29:46;1.70;;;0.80;;
50681;SDS011;36779;52.168;20.878;2022-07-29T16:32:37;3.10;;;0.80;;
50681;SDS011;36779;52.168;20.878;2022-07-29T16:35:26;2.30;;;1.00;;
50681;SDS011;36779;52.168;20.878;2022-07-29T16:38:27;3.40;;;1.10;;
50681;SDS011;36779;52.168;20.878;2022-07-29T16:41:16;4.50;;;1.00;;
50681;SDS011;36779;52.168;20.878;2022-07-29T16:44:05;1.20;;;0.70;;
50681;SDS011;36779;52.168;20.878;2022-07-29T16:46:55;2.60;;;0.80;;
50681;SDS011;36779;52.168;20.878;2022-07-29T16:49:47;2.00;;;1.00;;
50681;SDS011;36779;52.168;20.878;2022-07-29T16:52:37;4.00;;;1.00;;
50681;SDS011;36779;52.168;20.878;2022-07-29T16:59:51;3.30;;;0.80;;
50681;SDS011;36779;52.168;20.878;2022-07-29T17:02:40;2.40;;;0.80;;
50681;SDS011;36779;52.168;20.878;2022-07-29T17:05:29;1.20;;;0.90;;
50681;SDS011;36779;52.168;20.878;2022-07-29T17:08:39;6.00;;;1.20;;
50681;SDS011;36779;52.168;20.878;2022-07-29T17:11:28;4.40;;;0.90;;
50681;SDS011;36779;52.168;20.878;2022-07-29T17:14:37;2.60;;;0.90;;
50681;SDS011;36779;52.168;20.878;2022-07-29T17:17:27;3.10;;;0.80;;
50681;SDS011;36779;52.168;20.878;2022-07-29T17:20:37;2.00;;;0.90;;
50681;SDS011;36779;52.168;20.878;2022-07-29T17:23:33;1.50;;;0.70;;
50681;SDS011;36779;52.168;20.878;2022-07-29T17:26:22;3.40;;;0.90;;
50681;SDS011;36779;52.168;20.878;2022-07-29T17:29:15;1.40;;;0.80;;
50681;SDS011;36779;52.168;20.878;2022-07-29T17:31:56;2.70;;;0.70;;
50681;SDS011;36779;52.168;20.878;2022-07-29T17:34:46;2.30;;;0.90;;
50681;SDS011;36779;52.168;20.878;2022-07-29T17:37:35;1.20;;;0.80;;
50681;SDS011;36779;52.168;20.878;2022-07-29T17:40:23;2.20;;;0.70;;
50681;SDS011;36779;52.168;20.878;2022-07-29T17:43:13;2.70;;;0.80;;
50681;SDS011;36779;52.168;20.878;2022-07-29T17:46:02;1.60;;;0.70;;
50681;SDS011;36779;52.168;20.878;2022-07-29T17:48:52;2.90;;;0.80;;
50681;SDS011;36779;52.168;20.878;2022-07-29T17:51:41;2.30;;;0.60;;
50681;SDS011;36779;52.168;20.878;2022-07-29T17:54:31;2.80;;;0.70;;
50681;SDS011;36779;52.168;20.878;2022-07-29T17:57:20;1.30;;;0.80;;